createdAt,value
2023-03-05T00:07:36.714Z,89.0
2023-03-05T00:24:48.933Z,88.0
2023-03-05T00:38:49.039Z,87.0
2023-03-05T00:51:35.682Z,87.0
2023-03-05T01:04:41.080Z,89.0
2023-03-05T01:14:50.749Z,88.0
2023-03-05T01:33:06.107Z,90.0
2023-03-05T01:48:53.422Z,90.0
2023-03-05T02:02:53.498Z,90.0
2023-03-05T02:08:39.527Z,90.0
2023-03-05T02:20:59.478Z,90.0
2023-03-05T02:32:04.472Z,90.0
2023-03-05T02:37:47.020Z,90.0
2023-03-05T02:51:37.375Z,91.0
2023-03-05T03:02:52.624Z,91.0
2023-03-05T03:10:29.667Z,92.0
2023-03-05T03:25:33.706Z,92.0
2023-03-05T03:41:15.947Z,93.0
2023-03-05T03:48:50.002Z,91.0
2023-03-05T04:03:20.301Z,92.0
2023-03-05T04:20:52.208Z,92.0
2023-03-05T04:25:11.822Z,92.0
2023-03-05T04:31:25.897Z,92.0
2023-03-05T04:37:25.593Z,92.0
2023-03-05T04:51:25.777Z,92.0
2023-03-05T05:05:25.822Z,91.0
2023-03-05T05:19:25.859Z,92.0
2023-03-05T05:25:57.749Z,92.0
2023-03-05T05:37:49.817Z,93.0
2023-03-05T05:51:49.218Z,94.0
2023-03-05T05:56:01.446Z,94.0
2023-03-05T06:06:48.136Z,94.0
2023-03-05T06:14:13.140Z,93.0
2023-03-05T06:21:31.173Z,94.0
2023-03-05T06:25:18.540Z,93.0
2023-03-05T06:33:09.179Z,93.0
2023-03-05T06:48:09.554Z,93.0
2023-03-05T06:56:27.952Z,93.0
2023-03-05T07:03:09.840Z,94.0
2023-03-05T07:18:13.694Z,91.0
2023-03-05T07:34:46.320Z,88.0
2023-03-05T07:40:27.659Z,85.0
2023-03-05T07:58:04.384Z,73.0
2023-03-05T08:13:36.762Z,65.0
2023-03-05T08:28:05.825Z,61.0
2023-03-05T08:34:21.141Z,61.0
2023-03-05T08:40:02.366Z,59.0
2023-03-05T08:55:46.264Z,58.0
2023-03-05T09:10:46.135Z,55.0
2023-03-05T09:16:17.740Z,56.0
2023-03-05T09:25:25.629Z,54.0
2023-03-05T09:40:26.357Z,53.0
2023-03-05T09:53:49.348Z,54.0
2023-03-05T10:02:27.177Z,53.0
2023-03-05T10:07:52.142Z,53.0
2023-03-05T10:16:44.307Z,52.0
2023-03-05T10:31:44.332Z,52.0
2023-03-05T10:44:44.485Z,52.0
2023-03-05T10:48:43.135Z,52.0
2023-03-05T10:55:20.177Z,51.0
2023-03-05T11:09:27.759Z,52.0
2023-03-05T11:25:20.961Z,52.0
2023-03-05T11:34:32.957Z,49.0
2023-03-05T11:41:14.642Z,50.0
2023-03-05T11:45:34.496Z,47.0
2023-03-05T11:51:56.044Z,50.0
2023-03-05T12:05:22.230Z,49.0
2023-03-05T12:14:37.953Z,50.0
2023-03-05T12:21:12.590Z,48.0
2023-03-05T12:36:12.474Z,48.0
2023-03-05T12:45:14.402Z,47.0
2023-03-05T13:00:32.326Z,45.0
2023-03-05T13:09:00.565Z,45.0
2023-03-05T13:15:54.175Z,44.0
2023-03-05T13:24:11.415Z,46.0
2023-03-05T13:35:58.442Z,46.0
2023-03-05T13:51:23.921Z,45.0
2023-03-05T14:00:17.744Z,45.0
2023-03-05T14:10:06.031Z,47.0
2023-03-05T14:22:04.697Z,50.0
2023-03-05T14:25:30.428Z,51.0
2023-03-05T14:35:03.753Z,52.0
2023-03-05T14:45:24.204Z,53.0
2023-03-05T15:06:52.265Z,55.0
2023-03-05T15:21:52.401Z,55.0
2023-03-05T15:30:07.425Z,56.0
2023-03-05T15:34:30.046Z,56.0
2023-03-05T15:52:25.234Z,57.0
2023-03-05T16:00:13.344Z,58.0
2023-03-05T16:13:22.807Z,60.0
2023-03-05T16:19:46.161Z,60.0
2023-03-05T16:34:46.017Z,61.0
2023-03-05T16:45:57.679Z,64.0
2023-03-05T16:53:26.549Z,66.0
2023-03-05T17:02:09.039Z,67.0
2023-03-05T17:12:22.369Z,68.0
2023-03-05T17:30:13.719Z,71.0
2023-03-05T17:44:13.730Z,72.0
2023-03-05T17:56:28.087Z,73.0
2023-03-05T18:10:28.072Z,73.0
2023-03-05T18:18:42.624Z,73.0
2023-03-05T18:29:54.825Z,74.0
2023-03-05T18:35:39.897Z,74.0
2023-03-05T18:49:39.663Z,75.0
2023-03-05T19:02:56.979Z,77.0
2023-03-05T19:07:52.530Z,77.0
2023-03-05T19:14:09.883Z,77.0
2023-03-05T19:28:10.161Z,77.0
2023-03-05T19:38:49.719Z,78.0
2023-03-05T19:50:59.370Z,79.0
2023-03-05T20:04:59.342Z,80.0
2023-03-05T20:17:18.242Z,81.0
2023-03-05T20:31:00.461Z,81.0
2023-03-05T20:43:31.576Z,81.0
2023-03-05T20:57:31.717Z,81.0
2023-03-05T21:07:25.042Z,80.0
2023-03-05T21:21:25.213Z,81.0
2023-03-05T21:32:47.577Z,81.0
2023-03-05T21:38:56.825Z,82.0
2023-03-05T21:51:34.959Z,82.0
2023-03-05T22:04:29.053Z,82.0
2023-03-05T22:19:04.029Z,82.0
2023-03-05T22:23:52.723Z,82.0
2023-03-05T22:31:59.083Z,82.0
2023-03-05T22:39:48.665Z,82.0
2023-03-05T22:53:46.025Z,82.0
2023-03-05T23:06:20.349Z,82.0
2023-03-05T23:17:44.087Z,82.0
2023-03-05T23:26:12.022Z,82.0
2023-03-05T23:41:07.046Z,82.0
2023-03-05T23:53:14.104Z,81.0
